Wetterdaten: Woche 29.08.05 - 04.09.05 (KW35)
Datum Zeit Temperatur Luftfeuchte Luftdruck Niederschlag Wind Richtung Sonne Solar Taupunkt Windchill
29.08.2005 00:00 14.2 C 93 % 1022.8 hPa 0.0 l/m 0.0 km/h (0 Bft) N 0.00 h 0 W/m 13.1 C 14.2 C
29.08.2005 01:00 13.5 C 96 % 1022.9 hPa 0.0 l/m 1.0 km/h (0 Bft) O-SO 0.00 h 0 W/m 12.9 C 13.5 C
29.08.2005 02:00 13.4 C 95 % 1022.9 hPa 0.0 l/m 1.4 km/h (1 Bft) O-SO 0.00 h 0 W/m 12.7 C 13.4 C
29.08.2005 03:00 12.9 C 97 % 1023.0 hPa 0.0 l/m 2.2 km/h (1 Bft) O-SO 0.00 h 0 W/m 12.3 C 12.9 C
29.08.2005 04:00 12.4 C 97 % 1023.1 hPa 0.0 l/m 4.4 km/h (1 Bft) O-SO 0.00 h 0 W/m 11.8 C 12.4 C
29.08.2005 05:00 11.9 C 98 % 1023.1 hPa 0.0 l/m 1.5 km/h (1 Bft) O-SO 0.00 h 0 W/m 11.6 C 11.9 C
29.08.2005 06:00 11.4 C 99 % 1023.2 hPa 0.0 l/m 0.0 km/h (0 Bft) N 0.03 h 11 W/m 11.2 C 11.4 C
29.08.2005 07:00 12.0 C 97 % 1023.1 hPa 0.0 l/m 4.9 km/h (1 Bft) O-SO 0.37 h 90 W/m 11.6 C 12.0 C
29.08.2005 08:00 14.1 C 88 % 1022.9 hPa 0.0 l/m 2.4 km/h (1 Bft) O-SO 1.00 h 289 W/m 12.0 C 14.1 C
29.08.2005 09:00 16.1 C 78 % 1022.6 hPa 0.0 l/m 1.2 km/h (1 Bft) W-NW 1.00 h 440 W/m 12.2 C 16.1 C
29.08.2005 10:00 18.5 C 66 % 1022.3 hPa 0.0 l/m 2.3 km/h (1 Bft) W-NW 1.00 h 570 W/m 12.0 C 18.5 C
29.08.2005 11:00 21.0 C 62 % 1021.9 hPa 0.0 l/m 9.8 km/h (2 Bft) O-SO 1.00 h 666 W/m 13.4 C 21.0 C
29.08.2005 12:00 22.6 C 58 % 1021.7 hPa 0.0 l/m 8.9 km/h (2 Bft) O-SO 1.00 h 732 W/m 13.8 C 22.6 C
29.08.2005 13:00 24.1 C 53 % 1021.2 hPa 0.0 l/m 9.7 km/h (2 Bft) O-SO 1.00 h 748 W/m 13.8 C 24.1 C
29.08.2005 14:00 25.5 C 48 % 1020.4 hPa 0.0 l/m 6.3 km/h (2 Bft) O-SO 1.00 h 724 W/m 13.5 C 25.5 C
29.08.2005 15:00 26.8 C 44 % 1020.2 hPa 0.0 l/m 4.2 km/h (1 Bft) O-SO 1.00 h 659 W/m 13.5 C 26.8 C
29.08.2005 16:00 27.4 C 43 % 1020.1 hPa 0.0 l/m 2.2 km/h (1 Bft) W-NW 1.00 h 560 W/m 13.8 C 27.4 C
29.08.2005 17:00 27.2 C 43 % 1020.1 hPa 0.0 l/m 2.0 km/h (1 Bft) W-NW 1.00 h 436 W/m 13.6 C 27.2 C
29.08.2005 18:00 26.4 C 47 % 1020.9 hPa 0.0 l/m 0.6 km/h (0 Bft) W 1.00 h 286 W/m 14.2 C 26.4 C
29.08.2005 19:00 24.6 C 56 % 1021.5 hPa 0.0 l/m 0.0 km/h (0 Bft) N 1.00 h 104 W/m 15.1 C 24.6 C
29.08.2005 20:00 21.6 C 71 % 1022.2 hPa 0.0 l/m 2.3 km/h (1 Bft) O-SO 0.07 h 12 W/m 16.0 C 21.6 C
29.08.2005 21:00 19.3 C 83 % 1023.2 hPa 0.0 l/m 3.6 km/h (1 Bft) O-SO 0.00 h 0 W/m 16.2 C 19.3 C
29.08.2005 22:00 17.9 C 88 % 1023.4 hPa 0.0 l/m 0.6 km/h (0 Bft) O-SO 0.00 h 0 W/m 15.9 C 17.9 C
29.08.2005 23:00 16.7 C 93 % 1023.6 hPa 0.0 l/m 0.5 km/h (0 Bft) O-SO 0.00 h 0 W/m 15.6 C 16.7 C
30.08.2005 00:00 15.9 C 95 % 1023.6 hPa 0.0 l/m 0.1 km/h (0 Bft) O-SO 0.00 h 0 W/m 15.2 C 15.9 C
30.08.2005 01:00 15.3 C 97 % 1023.7 hPa 0.0 l/m 1.0 km/h (0 Bft) O-SO 0.00 h 0 W/m 14.9 C 15.3 C
30.08.2005 02:00 15.0 C 99 % 1023.8 hPa 0.0 l/m 0.5 km/h (0 Bft) O-SO 0.00 h 0 W/m 14.8 C 15.0 C
30.08.2005 03:00 14.2 C 99 % 1023.9 hPa 0.0 l/m 0.2 km/h (0 Bft) O-SO 0.00 h 0 W/m 14.1 C 14.2 C
30.08.2005 04:00 13.9 C 100 % 1024.8 hPa 0.0 l/m 2.3 km/h (1 Bft) O 0.00 h 0 W/m 13.9 C 13.9 C
30.08.2005 05:00 13.6 C 100 % 1024.9 hPa 0.0 l/m 0.0 km/h (0 Bft) N 0.00 h 0 W/m 13.5 C 13.6 C
30.08.2005 06:00 13.0 C 100 % 1024.9 hPa 0.0 l/m 1.0 km/h (0 Bft) O 0.07 h 11 W/m 13.0 C 13.0 C
30.08.2005 07:00 14.0 C 99 % 1024.9 hPa 0.0 l/m 0.1 km/h (0 Bft) N 0.37 h 73 W/m 13.8 C 14.0 C
30.08.2005 08:00 15.2 C 93 % 1024.8 hPa 0.0 l/m 0.0 km/h (0 Bft) N 1.00 h 249 W/m 14.0 C 15.2 C
30.08.2005 09:00 17.0 C 87 % 1024.5 hPa 0.0 l/m 0.1 km/h (0 Bft) N 1.00 h 407 W/m 14.8 C 17.0 C
30.08.2005 10:00 20.0 C 75 % 1024.1 hPa 0.0 l/m 2.2 km/h (1 Bft) W-NW 1.00 h 549 W/m 15.4 C 20.0 C
30.08.2005 11:00 23.0 C 68 % 1023.8 hPa 0.0 l/m 7.9 km/h (2 Bft) O-SO 1.00 h 652 W/m 16.8 C 23.0 C
30.08.2005 12:00 24.5 C 61 % 1022.9 hPa 0.0 l/m 5.3 km/h (1 Bft) O-SO 1.00 h 717 W/m 16.5 C 24.5 C
30.08.2005 13:00 26.1 C 56 % 1022.1 hPa 0.0 l/m 11.8 km/h (2 Bft) O-SO 1.00 h 737 W/m 16.7 C 26.1 C
30.08.2005 14:00 27.6 C 52 % 1021.1 hPa 0.0 l/m 12.5 km/h (3 Bft) O-SO 1.00 h 712 W/m 16.8 C 27.6 C
30.08.2005 15:00 28.7 C 46 % 1020.2 hPa 0.0 l/m 10.9 km/h (2 Bft) O-SO 1.00 h 650 W/m 15.8 C 28.7 C
30.08.2005 16:00 29.5 C 42 % 1019.9 hPa 0.0 l/m 5.2 km/h (1 Bft) O-SO 1.00 h 549 W/m 15.1 C 29.5 C
30.08.2005 17:00 29.3 C 43 % 1019.9 hPa 0.0 l/m 6.6 km/h (2 Bft) O-SO 1.00 h 412 W/m 15.5 C 29.3 C
30.08.2005 18:00 28.6 C 48 % 1019.0 hPa 0.0 l/m 5.3 km/h (1 Bft) O-SO 1.00 h 250 W/m 16.4 C 28.6 C
30.08.2005 19:00 26.8 C 56 % 1019.2 hPa 0.0 l/m 0.5 km/h (0 Bft) O-SO 1.00 h 76 W/m 17.2 C 26.8 C
30.08.2005 20:00 23.3 C 71 % 1019.6 hPa 0.0 l/m 0.0 km/h (0 Bft) N 0.03 h 11 W/m 17.7 C 23.3 C
30.08.2005 21:00 21.1 C 80 % 1020.9 hPa 0.0 l/m 0.0 km/h (0 Bft) N 0.00 h 0 W/m 17.4 C 21.1 C
30.08.2005 22:00 19.5 C 86 % 1020.9 hPa 0.0 l/m 0.0 km/h (0 Bft) N 0.00 h 0 W/m 17.1 C 19.5 C
30.08.2005 23:00 19.0 C 89 % 1020.4 hPa 0.0 l/m 0.0 km/h (0 Bft) N 0.00 h 0 W/m 17.2 C 19.0 C
31.08.2005 00:00 18.3 C 92 % 1020.2 hPa 0.0 l/m 0.0 km/h (0 Bft) N 0.00 h 0 W/m 16.9 C 18.3 C
31.08.2005 01:00 17.2 C 94 % 1020.4 hPa 0.0 l/m 0.0 km/h (0 Bft) N 0.00 h 0 W/m 16.2 C 17.2 C
31.08.2005 02:00 16.5 C 97 % 1020.2 hPa 0.0 l/m 0.0 km/h (0 Bft) N 0.00 h 0 W/m 16.0 C 16.5 C
31.08.2005 03:00 15.9 C 98 % 1019.5 hPa 0.0 l/m 0.0 km/h (0 Bft) N 0.00 h 0 W/m 15.6 C 15.9 C
31.08.2005 04:00 15.3 C 99 % 1019.6 hPa 0.0 l/m 0.0 km/h (0 Bft) N 0.00 h 0 W/m 15.1 C 15.3 C
31.08.2005 05:00 15.0 C 100 % 1019.6 hPa 0.0 l/m 0.0 km/h (0 Bft) N 0.00 h 0 W/m 14.9 C 15.0 C
31.08.2005 06:00 14.7 C 100 % 1019.6 hPa 0.0 l/m 0.0 km/h (0 Bft) N 0.07 h 11 W/m 14.7 C 14.7 C
31.08.2005 07:00 15.2 C 98 % 1019.6 hPa 0.0 l/m 0.8 km/h (0 Bft) O-SO 0.37 h 68 W/m 14.9 C 15.2 C
31.08.2005 08:00 16.6 C 92 % 1019.4 hPa 0.0 l/m 0.0 km/h (0 Bft) N 1.00 h 232 W/m 15.2 C 16.6 C
31.08.2005 09:00 18.4 C 84 % 1019.2 hPa 0.0 l/m 0.0 km/h (0 Bft) N 1.00 h 396 W/m 15.7 C 18.4 C
31.08.2005 10:00 20.5 C 75 % 1018.9 hPa 0.0 l/m 1.9 km/h (1 Bft) W 1.00 h 532 W/m 16.0 C 20.5 C
31.08.2005 11:00 22.6 C 69 % 1017.6 hPa 0.0 l/m 1.6 km/h (1 Bft) O-SO 1.00 h 638 W/m 16.5 C 22.6 C
31.08.2005 12:00 24.6 C 64 % 1017.1 hPa 0.0 l/m 3.6 km/h (1 Bft) O-SO 1.00 h 709 W/m 17.2 C 24.6 C
31.08.2005 13:00 26.2 C 59 % 1016.1 hPa 0.0 l/m 3.5 km/h (1 Bft) O-SO 1.00 h 724 W/m 17.4 C 26.2 C
31.08.2005 14:00 28.0 C 52 % 1014.9 hPa 0.0 l/m 2.9 km/h (1 Bft) O 1.00 h 702 W/m 17.1 C 28.0 C
31.08.2005 15:00 29.5 C 41 % 1014.4 hPa 0.0 l/m 1.3 km/h (1 Bft) W-NW 1.00 h 654 W/m 14.9 C 29.5 C
31.08.2005 16:00 30.3 C 37 % 1013.5 hPa 0.0 l/m 2.1 km/h (1 Bft) W 1.00 h 550 W/m 13.8 C 30.3 C
31.08.2005 17:00 30.0 C 41 % 1013.6 hPa 0.0 l/m 1.1 km/h (0 Bft) S-SW 1.00 h 417 W/m 15.1 C 30.0 C
31.08.2005 18:00 28.8 C 45 % 1013.0 hPa 0.0 l/m 0.7 km/h (0 Bft) W-NW 1.00 h 275 W/m 15.6 C 28.8 C
31.08.2005 19:00 26.8 C 53 % 1012.9 hPa 0.0 l/m 0.8 km/h (0 Bft) O-SO 1.00 h 94 W/m 16.4 C 26.8 C
31.08.2005 20:00 23.1 C 72 % 1014.1 hPa 0.0 l/m 5.7 km/h (1 Bft) O-SO 0.00 h 10 W/m 17.8 C 23.1 C
31.08.2005 21:00 20.8 C 82 % 1014.7 hPa 0.0 l/m 0.0 km/h (0 Bft) N 0.00 h 0 W/m 17.6 C 20.8 C
31.08.2005 22:00 19.3 C 88 % 1014.9 hPa 0.0 l/m 0.0 km/h (0 Bft) N 0.00 h 0 W/m 17.2 C 19.3 C
31.08.2005 23:00 18.4 C 93 % 1015.0 hPa 0.0 l/m 1.7 km/h (1 Bft) O 0.00 h 0 W/m 17.2 C 18.4 C
01.09.2005 00:00 17.8 C 96 % 1015.7 hPa 0.0 l/m 0.9 km/h (0 Bft) O 0.00 h 0 W/m 17.1 C 17.8 C
01.09.2005 01:00 17.1 C 97 % 1016.2 hPa 0.0 l/m 0.0 km/h (0 Bft) N 0.00 h 0 W/m 16.7 C 17.1 C
01.09.2005 02:00 16.6 C 98 % 1016.3 hPa 0.0 l/m 2.1 km/h (1 Bft) O 0.00 h 0 W/m 16.4 C 16.6 C
01.09.2005 03:00 16.3 C 99 % 1016.3 hPa 0.0 l/m 0.2 km/h (0 Bft) O 0.00 h 0 W/m 16.1 C 16.3 C
01.09.2005 04:00 15.5 C 99 % 1016.4 hPa 0.0 l/m 0.1 km/h (0 Bft) O 0.00 h 0 W/m 15.4 C 15.5 C
01.09.2005 05:00 15.2 C 100 % 1016.5 hPa 0.0 l/m 0.1 km/h (0 Bft) O 0.00 h 0 W/m 15.2 C 15.2 C
01.09.2005 06:00 15.0 C 100 % 1016.5 hPa 0.0 l/m 0.1 km/h (0 Bft) N 0.00 h 8 W/m 15.0 C 15.0 C
01.09.2005 07:00 15.9 C 97 % 1016.4 hPa 0.0 l/m 0.0 km/h (0 Bft) N 0.00 h 28 W/m 15.4 C 15.9 C
01.09.2005 08:00 17.2 C 96 % 1016.7 hPa 0.0 l/m 0.1 km/h (0 Bft) N 0.17 h 132 W/m 16.6 C 17.2 C
01.09.2005 09:00 18.9 C 89 % 1017.0 hPa 0.0 l/m 2.1 km/h (1 Bft) O-SO 0.83 h 364 W/m 17.1 C 18.9 C
01.09.2005 10:00 21.3 C 80 % 1016.7 hPa 0.0 l/m 1.0 km/h (0 Bft) O-SO 1.00 h 518 W/m 17.6 C 21.3 C
01.09.2005 11:00 24.1 C 59 % 1016.4 hPa 0.0 l/m 9.6 km/h (2 Bft) W-NW 0.90 h 638 W/m 15.4 C 24.1 C
01.09.2005 12:00 25.2 C 51 % 1016.2 hPa 0.0 l/m 17.0 km/h (3 Bft) W-NW 0.57 h 541 W/m 14.2 C 25.2 C
01.09.2005 13:00 25.3 C 51 % 1016.2 hPa 0.0 l/m 17.0 km/h (3 Bft) W-NW 0.60 h 595 W/m 14.5 C 25.3 C
01.09.2005 14:00 26.5 C 52 % 1016.1 hPa 0.0 l/m 17.6 km/h (3 Bft) W-NW 1.00 h 695 W/m 15.9 C 26.5 C
01.09.2005 15:00 27.5 C 51 % 1015.5 hPa 0.0 l/m 13.6 km/h (3 Bft) W-NW 1.00 h 651 W/m 16.3 C 27.5 C
01.09.2005 16:00 28.4 C 48 % 1014.8 hPa 0.0 l/m 9.6 km/h (2 Bft) W-NW 1.00 h 529 W/m 16.3 C 28.4 C
01.09.2005 17:00 28.5 C 49 % 1014.8 hPa 0.0 l/m 7.2 km/h (2 Bft) W-NW 1.00 h 382 W/m 16.6 C 28.5 C
01.09.2005 18:00 27.6 C 53 % 1014.9 hPa 0.0 l/m 0.8 km/h (0 Bft) W 0.90 h 201 W/m 17.2 C 27.6 C
01.09.2005 19:00 25.1 C 61 % 1015.9 hPa 0.0 l/m 0.2 km/h (0 Bft) W-NW 0.00 h 21 W/m 17.0 C 25.1 C
01.09.2005 20:00 22.9 C 72 % 1017.2 hPa 0.0 l/m 1.7 km/h (1 Bft) SO 0.00 h 5 W/m 17.6 C 22.9 C
01.09.2005 21:00 22.2 C 74 % 1017.6 hPa 0.0 l/m 1.8 km/h (1 Bft) O-SO 0.00 h 0 W/m 17.3 C 22.2 C
01.09.2005 22:00 21.5 C 77 % 1018.6 hPa 0.0 l/m 0.5 km/h (0 Bft) O 0.00 h 0 W/m 17.4 C 21.5 C
01.09.2005 23:00 20.7 C 84 % 1018.9 hPa 0.0 l/m 1.3 km/h (1 Bft) O 0.00 h 0 W/m 17.8 C 20.7 C
02.09.2005 00:00 20.1 C 87 % 1019.0 hPa 0.0 l/m 1.1 km/h (1 Bft) O 0.00 h 0 W/m 17.9 C 20.1 C
02.09.2005 01:00 19.1 C 92 % 1020.1 hPa 0.0 l/m 0.8 km/h (0 Bft) O 0.00 h 0 W/m 17.8 C 19.1 C
02.09.2005 02:00 18.6 C 95 % 1020.2 hPa 0.0 l/m 0.5 km/h (0 Bft) O 0.00 h 0 W/m 17.8 C 18.6 C
02.09.2005 03:00 18.5 C 96 % 1020.2 hPa 0.0 l/m 0.0 km/h (0 Bft) N 0.00 h 0 W/m 17.8 C 18.5 C
02.09.2005 04:00 17.6 C 98 % 1020.9 hPa 0.0 l/m 0.5 km/h (0 Bft) O 0.00 h 0 W/m 17.2 C 17.6 C
02.09.2005 05:00 17.1 C 98 % 1020.9 hPa 0.0 l/m 0.3 km/h (0 Bft) O 0.00 h 0 W/m 16.9 C 17.1 C
02.09.2005 06:00 17.2 C 100 % 1021.5 hPa 0.0 l/m 0.0 km/h (0 Bft) N 0.00 h 4 W/m 17.1 C 17.2 C
02.09.2005 07:00 17.5 C 98 % 1022.4 hPa 0.0 l/m 0.7 km/h (0 Bft) O-SO 0.00 h 38 W/m 17.2 C 17.5 C
02.09.2005 08:00 18.8 C 90 % 1022.2 hPa 0.0 l/m 0.6 km/h (0 Bft) N-NW 0.20 h 138 W/m 17.1 C 18.8 C
02.09.2005 09:00 20.0 C 83 % 1022.7 hPa 0.0 l/m 0.6 km/h (0 Bft) NW 1.00 h 330 W/m 17.1 C 20.0 C
02.09.2005 10:00 21.4 C 76 % 1022.9 hPa 0.0 l/m 0.1 km/h (0 Bft) N 0.90 h 429 W/m 17.0 C 21.4 C
02.09.2005 11:00 22.8 C 70 % 1022.8 hPa 0.0 l/m 0.4 km/h (0 Bft) NW 1.00 h 591 W/m 17.0 C 22.8 C
02.09.2005 12:00 24.9 C 65 % 1022.5 hPa 0.0 l/m 6.0 km/h (2 Bft) O-SO 1.00 h 675 W/m 17.8 C 24.9 C
02.09.2005 13:00 26.5 C 60 % 1021.7 hPa 0.0 l/m 8.4 km/h (2 Bft) O-SO 1.00 h 707 W/m 18.0 C 26.5 C
02.09.2005 14:00 27.8 C 56 % 1021.1 hPa 0.0 l/m 9.6 km/h (2 Bft) O-SO 1.00 h 699 W/m 18.2 C 27.8 C
02.09.2005 15:00 28.8 C 50 % 1021.0 hPa 0.0 l/m 3.4 km/h (1 Bft) O-SO 1.00 h 627 W/m 17.5 C 28.8 C
02.09.2005 16:00 28.9 C 46 % 1020.6 hPa 0.0 l/m 5.3 km/h (1 Bft) O-SO 0.60 h 417 W/m 16.2 C 28.9 C
02.09.2005 17:00 26.0 C 51 % 1021.3 hPa 0.0 l/m 7.6 km/h (2 Bft) O 0.20 h 178 W/m 15.1 C 26.0 C
02.09.2005 18:00 26.3 C 47 % 1021.3 hPa 0.0 l/m 3.6 km/h (1 Bft) W-NW 1.00 h 237 W/m 14.1 C 26.3 C
02.09.2005 19:00 24.1 C 53 % 1021.7 hPa 0.0 l/m 0.3 km/h (0 Bft) W-NW 0.17 h 44 W/m 13.9 C 24.1 C
02.09.2005 20:00 21.5 C 68 % 1022.9 hPa 0.0 l/m 0.0 km/h (0 Bft) N 0.00 h 8 W/m 15.2 C 21.5 C
02.09.2005 21:00 19.9 C 77 % 1023.1 hPa 0.0 l/m 0.0 km/h (0 Bft) N 0.00 h 0 W/m 15.7 C 19.9 C
02.09.2005 22:00 19.0 C 83 % 1023.2 hPa 0.0 l/m 0.0 km/h (0 Bft) N 0.00 h 0 W/m 16.0 C 19.0 C
02.09.2005 23:00 18.4 C 88 % 1024.3 hPa 0.0 l/m 0.0 km/h (0 Bft) N 0.00 h 0 W/m 16.5 C 18.4 C
03.09.2005 00:00 18.1 C 92 % 1024.4 hPa 0.0 l/m 0.8 km/h (0 Bft) O-NO 0.00 h 0 W/m 16.7 C 18.1 C
03.09.2005 01:00 17.7 C 95 % 1024.5 hPa 0.0 l/m 0.0 km/h (0 Bft) N 0.00 h 0 W/m 16.8 C 17.7 C
03.09.2005 02:00 17.1 C 96 % 1024.5 hPa 0.0 l/m 0.2 km/h (0 Bft) O 0.00 h 0 W/m 16.6 C 17.1 C
03.09.2005 03:00 16.9 C 98 % 1024.5 hPa 0.0 l/m 0.0 km/h (0 Bft) N 0.00 h 0 W/m 16.6 C 16.9 C
03.09.2005 04:00 16.7 C 99 % 1023.7 hPa 0.0 l/m 0.5 km/h (0 Bft) O 0.00 h 0 W/m 16.5 C 16.7 C
03.09.2005 05:00 16.4 C 99 % 1023.6 hPa 0.0 l/m 0.0 km/h (0 Bft) N 0.00 h 0 W/m 16.2 C 16.4 C
03.09.2005 06:00 16.2 C 99 % 1024.5 hPa 0.0 l/m 0.0 km/h (0 Bft) N 0.00 h 9 W/m 16.1 C 16.2 C
03.09.2005 07:00 16.7 C 98 % 1024.6 hPa 0.0 l/m 0.0 km/h (0 Bft) N 0.00 h 59 W/m 16.4 C 16.7 C
03.09.2005 08:00 17.9 C 90 % 1025.0 hPa 0.0 l/m 0.0 km/h (0 Bft) N 0.93 h 192 W/m 16.3 C 17.9 C
03.09.2005 09:00 19.6 C 83 % 1025.2 hPa 0.0 l/m 0.0 km/h (0 Bft) N 0.90 h 315 W/m 16.6 C 19.6 C
03.09.2005 10:00 22.0 C 75 % 1024.9 hPa 0.0 l/m 7.0 km/h (2 Bft) O-SO 0.83 h 461 W/m 17.4 C 22.0 C
03.09.2005 11:00 23.4 C 71 % 1024.7 hPa 0.0 l/m 11.6 km/h (2 Bft) O-SO 1.00 h 607 W/m 17.8 C 23.4 C
03.09.2005 12:00 25.1 C 65 % 1023.7 hPa 0.0 l/m 12.5 km/h (3 Bft) O-SO 1.00 h 684 W/m 18.1 C 25.1 C
03.09.2005 13:00 26.2 C 59 % 1023.5 hPa 0.0 l/m 14.7 km/h (3 Bft) O-SO 1.00 h 713 W/m 17.6 C 26.2 C
03.09.2005 14:00 27.0 C 55 % 1023.3 hPa 0.0 l/m 16.7 km/h (3 Bft) O-SO 0.80 h 611 W/m 17.2 C 27.0 C
03.09.2005 15:00 27.6 C 50 % 1022.5 hPa 0.0 l/m 11.3 km/h (2 Bft) O 0.80 h 528 W/m 16.3 C 27.6 C
03.09.2005 16:00 28.3 C 48 % 1022.1 hPa 0.0 l/m 3.2 km/h (1 Bft) O 0.87 h 439 W/m 16.1 C 28.3 C
03.09.2005 17:00 28.1 C 47 % 1022.1 hPa 0.0 l/m 4.3 km/h (1 Bft) O 0.97 h 342 W/m 15.7 C 28.1 C
03.09.2005 18:00 27.1 C 49 % 1022.2 hPa 0.0 l/m 5.3 km/h (1 Bft) O-SO 0.98 h 188 W/m 15.5 C 27.1 C
03.09.2005 19:00 25.4 C 56 % 1022.4 hPa 0.0 l/m 1.0 km/h (0 Bft) O-NO 0.20 h 47 W/m 15.9 C 25.4 C
03.09.2005 20:00 23.2 C 65 % 1022.9 hPa 0.0 l/m 0.0 km/h (0 Bft) N 0.00 h 0 W/m 16.2 C 23.2 C
03.09.2005 21:00 21.3 C 75 % 1024.0 hPa 0.0 l/m 0.0 km/h (0 Bft) N 0.00 h 0 W/m 16.7 C 21.3 C
03.09.2005 22:00 20.5 C 79 % 1024.1 hPa 0.0 l/m 0.0 km/h (0 Bft) N 0.00 h 0 W/m 16.7 C 20.5 C
03.09.2005 23:00 19.9 C 82 % 1024.2 hPa 0.0 l/m 0.0 km/h (0 Bft) N 0.00 h 0 W/m 16.8 C 19.9 C
04.09.2005 00:00 18.9 C 85 % 1024.3 hPa 0.0 l/m 0.0 km/h (0 Bft) N 0.00 h 0 W/m 16.3 C 18.9 C
04.09.2005 01:00 17.8 C 93 % 1024.2 hPa 0.0 l/m 0.5 km/h (0 Bft) O-NO 0.00 h 0 W/m 16.6 C 17.8 C
04.09.2005 02:00 17.1 C 96 % 1023.9 hPa 0.0 l/m 0.0 km/h (0 Bft) N 0.00 h 0 W/m 16.4 C 17.1 C
04.09.2005 03:00 16.2 C 97 % 1023.6 hPa 0.0 l/m 0.0 km/h (0 Bft) N 0.00 h 0 W/m 15.7 C 16.2 C
04.09.2005 04:00 15.7 C 99 % 1023.7 hPa 0.0 l/m 0.0 km/h (0 Bft) N 0.00 h 0 W/m 15.5 C 15.7 C
04.09.2005 05:00 15.6 C 99 % 1023.7 hPa 0.0 l/m 0.0 km/h (0 Bft) N 0.00 h 0 W/m 15.5 C 15.6 C
04.09.2005 06:00 15.1 C 100 % 1023.7 hPa 0.0 l/m 0.0 km/h (0 Bft) N 0.00 h 8 W/m 15.1 C 15.1 C
04.09.2005 07:00 15.4 C 99 % 1023.7 hPa 0.0 l/m 0.0 km/h (0 Bft) N 0.03 h 30 W/m 15.3 C 15.4 C
04.09.2005 08:00 17.0 C 93 % 1023.5 hPa 0.0 l/m 0.0 km/h (0 Bft) N 0.00 h 57 W/m 15.9 C 17.0 C
04.09.2005 09:00 18.2 C 87 % 1023.5 hPa 0.0 l/m 0.0 km/h (0 Bft) N 0.00 h 129 W/m 16.0 C 18.2 C
04.09.2005 10:00 19.4 C 78 % 1024.2 hPa 0.0 l/m 0.6 km/h (0 Bft) O 0.00 h 150 W/m 15.5 C 19.4 C
04.09.2005 11:00 20.2 C 77 % 1023.7 hPa 0.0 l/m 2.6 km/h (1 Bft) O-SO 0.00 h 195 W/m 15.9 C 20.2 C
04.09.2005 12:00 21.1 C 74 % 1023.0 hPa 0.0 l/m 1.8 km/h (1 Bft) O-SO 0.00 h 264 W/m 16.2 C 21.1 C
04.09.2005 13:00 21.7 C 69 % 1022.8 hPa 0.0 l/m 13.3 km/h (3 Bft) O-SO 0.03 h 345 W/m 15.8 C 21.7 C
04.09.2005 14:00 22.8 C 66 % 1021.7 hPa 0.0 l/m 12.2 km/h (2 Bft) O-SO 0.80 h 569 W/m 16.1 C 22.8 C
04.09.2005 15:00 24.1 C 60 % 1021.1 hPa 0.0 l/m 11.8 km/h (2 Bft) O-SO 1.00 h 608 W/m 16.0 C 24.1 C
04.09.2005 16:00 24.7 C 58 % 1020.4 hPa 0.0 l/m 13.0 km/h (3 Bft) O-SO 1.00 h 509 W/m 16.0 C 24.7 C
04.09.2005 17:00 24.9 C 58 % 1019.6 hPa 0.0 l/m 9.6 km/h (2 Bft) O-SO 0.98 h 384 W/m 16.1 C 24.9 C
04.09.2005 18:00 24.5 C 61 % 1019.4 hPa 0.0 l/m 6.1 km/h (2 Bft) O-SO 1.00 h 230 W/m 16.3 C 24.5 C
04.09.2005 19:00 22.9 C 68 % 1019.0 hPa 0.0 l/m 0.4 km/h (0 Bft) O-SO 0.80 h 59 W/m 16.5 C 22.9 C
04.09.2005 20:00 20.3 C 80 % 1019.8 hPa 0.0 l/m 0.5 km/h (0 Bft) O-SO 0.00 h 0 W/m 16.7 C 20.3 C
04.09.2005 21:00 18.3 C 91 % 1020.2 hPa 0.0 l/m 0.9 km/h (0 Bft) O-SO 0.00 h 0 W/m 16.8 C 18.3 C
04.09.2005 22:00 17.4 C 95 % 1020.3 hPa 0.0 l/m 0.0 km/h (0 Bft) N 0.00 h 0 W/m 16.5 C 17.4 C
04.09.2005 23:00 16.6 C 97 % 1020.4 hPa 0.0 l/m 0.0 km/h (0 Bft) N 0.00 h 0 W/m 16.1 C 16.6 C
Min-Datum _ 29.08.05 31.08.05 31.08.05 - 29.08.05 - - - 29.08.05 29.08.05
_ Min-Zeit 06:47 16:13 18:21 - 00:01 - - - 06:47 06:47
Minimum _ 11.0 C 33 % 1012.7 hPa - 0.0 km/h (0 Bft) - - - 10.8 C 11.0 C
Max-Datum _ 31.08.05 29.08.05 03.09.05 29.08.05 01.09.05 - 01.09.05 01.09.05 03.09.05 31.08.05
_ Max-Zeit 15:43 07:05 08:29 00:01 14:43 - 18:32 13:37 12:37 15:43
Maximum _ 30.5 C 100 % 1025.5 hPa 0.0 l/m 28.2 km/h
W-NW (4 Bft)
- 0.05 h 821 W/m 18.9 C 30.5 C
Durchschnitt _ 20.7 C 77 % 1020.8 hPa #0.0 l/m 2.9 km/h (1 Bft) O-SO #71:20 h 365 W/m 15.8 C 20.7 C

Durchschnitt Minimum Temp.20.0 C
Durchschnitt Maximum Temp.21.3 C
© Kaiko 2005